KDAL/DAL METAR and TAF weather

Enter ICAO airport designator
Station Type Date Time Source
KDAL METAR 2020/11/27 02:53 UTC NOAA

KDAL 270253Z 13006KT 10SM FEW040 FEW250 18/11 A2995 RMK AO2 SLP139 T01780106 51013


Station Type Date Time Source
KDAL Decoded METAR 2020/11/27 02:53 UTC NOAA

DALLAS LOVE FIELD, TX, United States (KDAL) 32-51N 096-51W 158M
Nov 26, 2020 - 09:53 PM EST / 2020.11.27 0253 UTC
Wind: from the SE (130 degrees) at 7 MPH (6 KT):0
Visibility: 10 mile(s):0
Sky conditions: mostly clear
Temperature: 64.0 F (17.8 C)
Dew Point: 51.1 F (10.6 C)
Relative Humidity: 62%
Pressure (altimeter): 29.95 in. Hg (1014 hPa)
Pressure tendency: 0.04 inches (1.3 hPa) higher than three hours ago
ob: KDAL 270253Z 13006KT 10SM FEW040 FEW250 18/11 A2995 RMK AO2 SLP139 T01780106 51013
cycle: 3

Station Type Date Time Source
KDAL TAF 2020/11/27 03:59 UTC NOAA

TAF
AMD KDAL 270259Z 2703/2724 12005KT P6SM FEW250
FM270900 31004KT P6SM OVC015
FM271100 34007KT P6SM BKN090
FM271400 36012KT P6SM BKN250

Example: see airport list